Time;durP1;ratioP1;P1;durP2;ratioP2;P2;SDS_P1;SDS_P2;PMS_P1;PMS_P2;Temp;Humidity;BMP_temperature;BMP_pressure;BME280_temperature;BME280_humidity;BME280_pressure;Samples;Min_cycle;Max_cycle;Signal;HPM_P1;HPM_P2
2024/01/19 00:02:22;;;;;;;103.82;31.98;;;4.20;99.90;;;;;;6222488;23;20020;-78
2024/01/19 00:04:51;;;;;;;95.40;32.80;;;4.20;99.90;;;;;;6223677;23;20081;-79
2024/01/19 00:07:19;;;;;;;85.72;30.70;;;4.20;99.90;;;;;;6222331;23;20078;-78
2024/01/19 00:09:48;;;;;;;85.22;31.08;;;4.20;99.90;;;;;;6255586;23;20016;-79
2024/01/19 00:12:17;;;;;;;76.57;29.10;;;4.10;99.90;;;;;;6227641;23;20027;-79
2024/01/19 00:14:45;;;;;;;82.97;28.90;;;4.10;99.90;;;;;;6231539;23;20024;-79
2024/01/19 00:17:14;;;;;;;71.47;26.15;;;4.10;99.90;;;;;;6252788;23;20126;-78
2024/01/19 00:19:44;;;;;;;76.95;25.85;;;4.10;99.90;;;;;;6217573;23;20590;-76
2024/01/19 00:22:12;;;;;;;91.63;27.45;;;4.10;99.90;;;;;;6230539;23;20073;-75
2024/01/19 00:24:40;;;;;;;77.07;24.20;;;4.10;99.90;;;;;;6229511;23;20027;-75
2024/01/19 00:27:09;;;;;;;73.00;24.38;;;4.00;99.90;;;;;;6229817;23;20098;-74
2024/01/19 00:29:37;;;;;;;77.10;23.77;;;4.00;99.90;;;;;;6202835;23;20736;-75
2024/01/19 00:32:06;;;;;;;76.53;23.65;;;4.00;99.90;;;;;;6230186;23;20091;-75
2024/01/19 00:34:35;;;;;;;62.17;22.85;;;4.10;99.90;;;;;;6203449;23;20031;-74
2024/01/19 00:37:07;;;;;;;81.10;25.63;;;4.00;99.90;;;;;;6229883;23;20605;-75
2024/01/19 00:39:35;;;;;;;87.55;25.65;;;4.10;99.90;;;;;;6231433;23;20032;-74
2024/01/19 00:42:04;;;;;;;85.13;25.33;;;4.00;99.90;;;;;;6230543;23;20041;-75
2024/01/19 00:44:32;;;;;;;80.18;26.70;;;4.00;99.90;;;;;;6205305;23;20028;-75
2024/01/19 00:47:01;;;;;;;76.13;26.25;;;4.00;99.90;;;;;;6231421;23;20024;-74
2024/01/19 00:49:30;;;;;;;60.58;24.45;;;4.00;99.90;;;;;;6204619;23;20027;-76
2024/01/19 00:51:58;;;;;;;62.75;23.83;;;4.00;99.90;;;;;;6203996;23;20020;-75
2024/01/19 00:54:28;;;;;;;65.70;24.80;;;4.00;99.90;;;;;;6204541;23;20023;-75
2024/01/19 00:56:56;;;;;;;55.78;21.88;;;4.10;99.90;;;;;;6204657;23;20056;-75
2024/01/19 00:59:25;;;;;;;53.72;21.33;;;4.10;99.90;;;;;;6204505;23;20533;-75
2024/01/19 01:01:53;;;;;;;56.60;20.60;;;4.20;99.90;;;;;;6207928;23;20453;-77
2024/01/19 01:04:22;;;;;;;59.00;23.42;;;4.20;99.90;;;;;;6209557;23;20052;-75
2024/01/19 01:06:50;;;;;;;63.55;22.33;;;4.40;99.90;;;;;;6206984;23;20078;-75
2024/01/19 01:09:19;;;;;;;64.07;23.00;;;4.60;99.90;;;;;;6205657;23;20023;-75
2024/01/19 01:11:48;;;;;;;66.80;24.05;;;4.70;99.90;;;;;;6232149;23;20020;-74
2024/01/19 01:14:17;;;;;;;68.20;21.67;;;4.70;99.90;;;;;;6231119;23;20072;-76
2024/01/19 01:16:45;;;;;;;61.97;20.77;;;4.60;99.90;;;;;;6204868;23;20484;-76
2024/01/19 01:19:14;;;;;;;64.50;20.30;;;4.60;99.90;;;;;;6206277;23;20024;-75
2024/01/19 01:21:42;;;;;;;63.88;18.08;;;4.50;99.90;;;;;;6205509;23;20042;-74
2024/01/19 01:24:11;;;;;;;63.30;19.58;;;4.50;99.90;;;;;;6234999;23;20016;-75
2024/01/19 01:26:39;;;;;;;53.30;20.13;;;4.50;99.90;;;;;;6206638;23;20086;-75
2024/01/19 01:29:09;;;;;;;52.80;21.25;;;4.40;99.90;;;;;;6206787;23;20655;-77
2024/01/19 01:31:37;;;;;;;53.90;22.48;;;4.30;99.90;;;;;;6226094;23;20084;-81
2024/01/19 01:34:06;;;;;;;44.05;16.33;;;4.30;99.90;;;;;;6227294;23;20075;-77
2024/01/19 01:36:34;;;;;;;52.00;20.02;;;4.10;99.90;;;;;;6225245;23;20024;-79
2024/01/19 01:39:03;;;;;;;46.28;17.90;;;4.10;99.90;;;;;;6224915;23;20027;-78
2024/01/19 01:41:33;;;;;;;44.55;17.88;;;4.00;99.90;;;;;;6225985;23;20024;-81
2024/01/19 01:44:04;;;;;;;50.35;19.70;;;3.90;99.90;;;;;;6227240;23;20024;-80
2024/01/19 01:46:40;;;;;;;49.67;19.88;;;3.80;99.90;;;;;;6244498;23;20444;-80
2024/01/19 01:49:16;;;;;;;40.35;16.70;;;3.80;99.90;;;;;;6255855;23;20091;-78
2024/01/19 01:51:48;;;;;;;44.10;16.92;;;4.60;99.90;;;;;;6258618;23;20055;-77
2024/01/19 01:54:17;;;;;;;50.13;24.20;;;3.40;99.90;;;;;;6257132;23;20015;-77
2024/01/19 01:56:46;;;;;;;44.05;19.23;;;3.50;99.90;;;;;;6257081;23;20018;-76
2024/01/19 01:59:19;;;;;;;42.72;18.13;;;3.30;99.90;;;;;;6257693;23;20062;-78
2024/01/19 02:01:49;;;;;;;;;;;3.90;99.90;;;;;;6257236;23;20023;-76
2024/01/19 02:04:18;;;;;;;46.38;19.63;;;3.30;99.90;;;;;;6260407;23;19920;-77
2024/01/19 02:06:47;;;;;;;43.75;17.38;;;3.20;99.90;;;;;;6260195;23;20043;-78
2024/01/19 02:09:16;;;;;;;50.95;21.00;;;2.70;99.90;;;;;;6257560;23;20008;-79
2024/01/19 02:11:45;;;;;;;50.05;24.23;;;3.10;99.90;;;;;;6259758;23;20027;-81
2024/01/19 02:14:14;;;;;;;49.63;24.02;;;3.00;99.90;;;;;;6260566;23;20008;-77
2024/01/19 02:16:43;;;;;;;42.13;17.55;;;2.90;99.90;;;;;;6259968;23;20012;-78
2024/01/19 02:19:13;;;;;;;44.90;18.65;;;2.90;99.90;;;;;;6257821;23;20018;-78
2024/01/19 02:21:42;;;;;;;39.65;18.10;;;3.10;99.90;;;;;;6258066;23;20027;-78
2024/01/19 02:24:14;;;;;;;43.03;21.08;;;1.50;99.90;;;;;;6258679;23;20027;-77
2024/01/19 02:26:43;;;;;;;41.17;19.83;;;2.80;99.90;;;;;;6260843;22;20020;-78
2024/01/19 02:29:12;;;;;;;39.15;18.50;;;2.70;99.90;;;;;;6257842;23;20087;-79
2024/01/19 02:31:41;;;;;;;37.85;18.00;;;3.10;99.90;;;;;;6260049;23;20031;-78
2024/01/19 02:34:09;;;;;;;37.00;17.25;;;2.70;99.90;;;;;;6260664;23;20024;-76
2024/01/19 02:36:38;;;;;;;33.35;16.33;;;2.60;99.90;;;;;;6256086;23;20024;-77
2024/01/19 02:39:08;;;;;;;37.95;18.52;;;2.50;99.90;;;;;;6258841;23;20012;-77
2024/01/19 02:41:39;;;;;;;37.10;16.10;;;2.70;99.90;;;;;;6260685;23;20016;-78
2024/01/19 02:44:08;;;;;;;31.10;15.40;;;2.50;99.90;;;;;;6266095;23;20019;-76
2024/01/19 02:46:38;;;;;;;36.05;18.55;;;2.50;99.90;;;;;;6257691;23;20016;-78
2024/01/19 02:49:09;;;;;;;30.48;13.85;;;2.30;99.90;;;;;;6261533;23;20023;-76
2024/01/19 02:51:38;;;;;;;30.95;15.07;;;2.40;99.90;;;;;;6254142;23;20020;-76
2024/01/19 02:54:07;;;;;;;36.10;16.02;;;1.10;99.90;;;;;;6258538;22;20039;-79
2024/01/19 02:56:36;;;;;;;34.55;14.48;;;2.30;99.90;;;;;;6257567;22;20020;-77
2024/01/19 02:59:06;;;;;;;33.35;15.50;;;2.20;99.90;;;;;;6257856;22;20046;-77
2024/01/19 03:01:35;;;;;;;25.55;12.77;;;2.80;99.90;;;;;;6261149;23;20079;-77
2024/01/19 03:04:04;;;;;;;32.33;13.88;;;2.10;99.90;;;;;;6256844;23;20204;-75
2024/01/19 03:06:33;;;;;;;30.38;13.15;;;1.40;99.90;;;;;;6261074;22;20007;-79
2024/01/19 03:09:03;;;;;;;34.95;16.13;;;1.80;99.90;;;;;;6259663;23;20090;-76
2024/01/19 03:11:32;;;;;;;33.40;14.02;;;2.30;99.90;;;;;;6260195;23;20036;-79
2024/01/19 03:14:01;;;;;;;29.65;13.82;;;3.40;99.90;;;;;;6257096;23;20020;-76
2024/01/19 03:16:31;;;;;;;34.08;15.23;;;2.30;99.90;;;;;;6257940;22;20366;-78
2024/01/19 03:19:05;;;;;;;27.98;12.98;;;2.50;99.90;;;;;;6260747;23;20008;-78
2024/01/19 03:21:37;;;;;;;29.42;14.52;;;2.30;99.90;;;;;;6259548;23;20016;-77
2024/01/19 03:24:06;;;;;;;26.08;14.05;;;2.30;99.90;;;;;;6260677;23;20012;-76
2024/01/19 03:26:35;;;;;;;27.13;11.38;;;1.20;99.90;;;;;;6257908;23;20020;-76
2024/01/19 03:29:04;;;;;;;26.10;13.23;;;2.30;99.90;;;;;;6256815;23;20031;-77
2024/01/19 03:31:34;;;;;;;29.77;13.02;;;2.20;99.90;;;;;;6262133;22;20007;-76
2024/01/19 03:34:03;;;;;;;26.77;14.88;;;2.30;99.90;;;;;;6259167;23;20039;-77
2024/01/19 03:36:31;;;;;;;26.20;11.00;;;2.20;99.90;;;;;;6257407;23;20042;-77
2024/01/19 03:39:00;;;;;;;27.48;13.35;;;2.20;99.90;;;;;;6260155;23;20068;-79
2024/01/19 03:41:29;;;;;;;24.95;11.75;;;2.30;99.90;;;;;;6262185;22;20026;-75
2024/01/19 03:43:58;;;;;;;25.00;12.00;;;2.30;99.90;;;;;;6259421;23;20023;-76
2024/01/19 03:46:27;;;;;;;24.63;11.85;;;2.10;99.90;;;;;;6260481;22;20012;-76
2024/01/19 03:48:58;;;;;;;18.95;9.27;;;2.10;99.90;;;;;;6232424;23;20020;-76
2024/01/19 03:51:27;;;;;;;22.73;9.95;;;2.20;99.90;;;;;;6208391;23;20469;-74
2024/01/19 03:53:55;;;;;;;22.73;12.05;;;2.10;99.90;;;;;;6235859;23;20027;-75
2024/01/19 03:56:28;;;;;;;23.70;12.07;;;2.10;99.90;;;;;;6208440;23;20034;-74
2024/01/19 03:58:57;;;;;;;24.33;10.82;;;2.10;99.90;;;;;;6184137;23;20057;-74
2024/01/19 04:01:26;;;;;;;23.60;8.32;;;2.10;99.90;;;;;;6206874;23;20024;-73
2024/01/19 04:03:54;;;;;;;22.23;11.75;;;2.10;99.90;;;;;;6208442;23;20048;-76
2024/01/19 04:06:24;;;;;;;23.33;10.15;;;2.00;99.90;;;;;;6206072;23;20028;-74
2024/01/19 04:08:53;;;;;;;22.85;9.00;;;2.00;99.90;;;;;;6205757;23;20028;-77
2024/01/19 04:11:22;;;;;;;24.45;9.52;;;2.00;99.90;;;;;;6205037;23;20755;-74
2024/01/19 04:13:52;;;;;;;20.90;10.13;;;2.00;99.90;;;;;;6236100;23;20027;-74
2024/01/19 04:16:23;;;;;;;21.67;10.27;;;2.00;99.90;;;;;;6213015;23;20020;-74
2024/01/19 04:18:51;;;;;;;24.75;10.80;;;2.00;99.90;;;;;;6209368;23;20028;-74
2024/01/19 04:21:20;;;;;;;23.48;9.68;;;2.00;99.90;;;;;;6207682;23;20028;-74
2024/01/19 04:23:50;;;;;;;24.05;10.60;;;2.00;99.90;;;;;;6208896;23;20106;-74
2024/01/19 04:26:19;;;;;;;23.42;11.70;;;2.00;99.90;;;;;;6234148;23;20043;-76
2024/01/19 04:28:48;;;;;;;21.38;9.63;;;2.00;99.90;;;;;;6206769;23;20028;-74
2024/01/19 04:31:16;;;;;;;24.35;11.82;;;2.10;99.90;;;;;;6235253;23;20030;-75
2024/01/19 04:33:49;;;;;;;21.33;10.77;;;2.00;99.90;;;;;;6207654;23;20028;-73
2024/01/19 04:36:19;;;;;;;22.23;11.13;;;2.00;99.90;;;;;;6234623;23;20020;-75
2024/01/19 04:38:52;;;;;;;22.75;10.57;;;2.00;99.90;;;;;;6233632;23;20115;-76
2024/01/19 04:41:24;;;;;;;22.80;10.27;;;2.00;99.90;;;;;;6206696;23;20043;-75
2024/01/19 04:43:53;;;;;;;23.83;8.82;;;2.00;99.90;;;;;;6205954;23;20028;-75
2024/01/19 04:46:21;;;;;;;24.88;10.20;;;2.00;99.90;;;;;;6237445;23;20012;-73
2024/01/19 04:48:50;;;;;;;24.45;11.95;;;2.00;99.90;;;;;;6209280;23;20078;-74
2024/01/19 04:51:18;;;;;;;19.63;9.15;;;2.00;99.90;;;;;;6207494;23;20028;-75
2024/01/19 04:53:47;;;;;;;21.90;11.32;;;2.00;99.90;;;;;;6208038;23;20037;-74
2024/01/19 04:56:17;;;;;;;22.65;11.57;;;2.00;99.90;;;;;;6235653;23;20442;-74
2024/01/19 04:58:48;;;;;;;;;;;2.00;99.90;;;;;;6209647;23;20031;-75
2024/01/19 05:01:17;;;;;;;19.50;10.25;;;2.00;99.90;;;;;;6209135;23;19919;-77
2024/01/19 05:03:46;;;;;;;23.02;9.57;;;1.90;99.90;;;;;;6239015;23;20028;-79
2024/01/19 05:06:14;;;;;;;20.35;10.40;;;2.00;99.90;;;;;;6215911;23;20055;-77
2024/01/19 05:08:43;;;;;;;20.15;10.18;;;2.00;99.90;;;;;;6209589;23;20032;-78
2024/01/19 05:11:13;;;;;;;18.95;8.38;;;2.00;99.90;;;;;;6210591;23;20027;-77
2024/01/19 05:13:44;;;;;;;20.05;8.82;;;2.00;99.90;;;;;;6208935;23;20123;-78
2024/01/19 05:16:12;;;;;;;19.65;10.05;;;2.00;99.90;;;;;;6238166;23;20016;-78
2024/01/19 05:18:41;;;;;;;18.42;7.53;;;2.10;99.90;;;;;;6207198;23;20097;-78
2024/01/19 05:21:09;;;;;;;20.65;8.93;;;2.00;99.90;;;;;;6233562;23;20028;-77
2024/01/19 05:23:38;;;;;;;20.77;8.57;;;2.00;99.90;;;;;;6234552;23;20024;-77
2024/01/19 05:26:08;;;;;;;17.85;8.25;;;2.00;99.90;;;;;;6237289;23;20123;-78
2024/01/19 05:28:37;;;;;;;19.00;7.95;;;2.10;99.90;;;;;;6211322;23;20028;-77
2024/01/19 05:31:07;;;;;;;20.70;8.23;;;2.10;99.90;;;;;;6241948;23;20023;-79
2024/01/19 05:33:35;;;;;;;21.02;8.13;;;2.10;99.90;;;;;;6238883;23;20047;-78
2024/01/19 05:36:08;;;;;;;18.70;7.38;;;2.10;99.90;;;;;;6209050;23;20048;-78
2024/01/19 05:38:36;;;;;;;20.67;8.43;;;2.10;99.90;;;;;;6210135;23;20797;-78
2024/01/19 05:41:05;;;;;;;22.52;8.48;;;2.00;99.90;;;;;;6238870;23;20024;-78
2024/01/19 05:43:34;;;;;;;19.55;8.30;;;2.00;99.90;;;;;;6211411;23;20024;-78
2024/01/19 05:46:02;;;;;;;20.30;9.73;;;2.00;99.90;;;;;;6218280;23;20028;-78
2024/01/19 05:48:32;;;;;;;19.35;7.93;;;2.00;99.90;;;;;;6235787;23;20022;-79
2024/01/19 05:51:01;;;;;;;21.80;9.98;;;2.90;99.90;;;;;;6233022;23;20030;-78
2024/01/19 05:53:29;;;;;;;22.17;8.63;;;2.00;99.90;;;;;;6239412;23;20020;-78
2024/01/19 05:56:00;;;;;;;20.17;9.95;;;2.20;99.90;;;;;;6237168;23;20074;-78
2024/01/19 05:58:29;;;;;;;20.08;7.72;;;2.00;99.90;;;;;;6249364;22;20722;-77
2024/01/19 06:00:58;;;;;;;21.92;9.13;;;2.00;99.90;;;;;;6240274;23;20024;-78
2024/01/19 06:03:26;;;;;;;18.50;8.68;;;2.00;99.90;;;;;;6245291;23;20358;-79
2024/01/19 06:05:56;;;;;;;19.70;8.20;;;2.10;99.90;;;;;;6244849;23;20027;-77
2024/01/19 06:08:24;;;;;;;16.92;6.65;;;2.10;99.90;;;;;;6245611;23;20022;-77
2024/01/19 06:10:53;;;;;;;15.13;6.95;;;2.10;99.90;;;;;;6244254;23;20101;-78
2024/01/19 06:13:21;;;;;;;16.55;7.32;;;2.00;99.90;;;;;;6245079;23;20361;-76
2024/01/19 06:15:50;;;;;;;15.05;6.57;;;2.00;99.90;;;;;;6247251;22;20020;-77
2024/01/19 06:18:18;;;;;;;16.75;6.85;;;2.00;99.90;;;;;;6241606;23;20023;-78
2024/01/19 06:20:47;;;;;;;17.95;7.50;;;2.00;99.90;;;;;;6245538;23;20024;-77
2024/01/19 06:23:17;;;;;;;19.05;7.88;;;2.00;99.90;;;;;;6249143;23;20108;-78
2024/01/19 06:25:45;;;;;;;20.77;8.40;;;2.00;99.90;;;;;;6240600;23;20031;-78
2024/01/19 06:28:14;;;;;;;23.30;8.57;;;2.00;99.90;;;;;;6240511;23;20020;-78
2024/01/19 06:30:42;;;;;;;19.63;8.23;;;2.00;99.90;;;;;;6243167;23;20024;-77
2024/01/19 06:33:11;;;;;;;19.00;8.82;;;2.00;99.90;;;;;;6240875;22;20024;-79
2024/01/19 06:35:40;;;;;;;21.08;8.93;;;1.90;99.90;;;;;;6243334;23;20599;-78
2024/01/19 06:38:08;;;;;;;18.92;7.25;;;1.90;99.90;;;;;;6242562;23;20051;-78
2024/01/19 06:40:38;;;;;;;18.02;7.78;;;1.90;99.90;;;;;;6243945;23;20024;-78
2024/01/19 06:43:06;;;;;;;22.77;9.20;;;1.90;99.90;;;;;;6237566;23;20028;-79
2024/01/19 06:45:35;;;;;;;23.42;10.38;;;1.90;99.90;;;;;;6245177;23;20059;-78
2024/01/19 06:48:03;;;;;;;20.00;7.80;;;1.90;99.90;;;;;;6237385;23;20665;-78
2024/01/19 06:50:32;;;;;;;19.98;8.50;;;1.90;99.90;;;;;;6242672;23;20020;-78
2024/01/19 06:53:00;;;;;;;22.50;8.98;;;1.90;99.90;;;;;;6243902;23;20032;-79
2024/01/19 06:55:29;;;;;;;17.83;7.20;;;1.90;99.90;;;;;;6248039;23;20116;-78
2024/01/19 06:57:59;;;;;;;19.92;9.50;;;1.90;99.90;;;;;;6241218;23;20082;-78
2024/01/19 07:00:27;;;;;;;20.77;9.35;;;1.90;99.90;;;;;;6238847;23;20840;-78
2024/01/19 07:02:55;;;;;;;20.00;8.07;;;1.90;99.90;;;;;;6243041;23;20028;-79
2024/01/19 07:05:24;;;;;;;20.20;9.38;;;1.90;99.90;;;;;;6241892;23;20028;-78
2024/01/19 07:07:53;;;;;;;23.00;9.38;;;1.90;99.90;;;;;;6240630;23;20029;-78
2024/01/19 07:10:23;;;;;;;19.77;9.15;;;1.90;99.90;;;;;;6243215;23;20031;-79
2024/01/19 07:12:52;;;;;;;19.33;7.93;;;2.00;99.90;;;;;;6247837;23;20024;-77
2024/01/19 07:15:22;;;;;;;21.50;8.23;;;2.00;99.90;;;;;;6243040;23;20024;-78
2024/01/19 07:17:50;;;;;;;19.52;7.82;;;2.00;99.90;;;;;;6247277;23;20020;-77
2024/01/19 07:20:18;;;;;;;19.67;8.35;;;2.00;99.90;;;;;;6251030;23;20051;-76
2024/01/19 07:22:47;;;;;;;21.83;7.72;;;2.00;99.90;;;;;;6263907;22;19996;-76
2024/01/19 07:25:15;;;;;;;24.35;10.27;;;2.00;99.90;;;;;;6265239;23;20072;-76
2024/01/19 07:27:46;;;;;;;23.33;8.82;;;2.00;99.90;;;;;;6263786;22;20024;-79
2024/01/19 07:30:15;;;;;;;24.95;9.85;;;2.00;99.90;;;;;;6262097;23;20008;-76
2024/01/19 07:32:45;;;;;;;27.67;14.07;;;2.00;99.90;;;;;;6266314;22;19992;-77
2024/01/19 07:35:32;;;;;;;31.58;13.68;;;2.10;99.90;;;;;;6264819;22;20004;-76
2024/01/19 07:38:01;;;;;;;67.13;33.47;;;2.10;99.90;;;;;;6263284;23;20012;-76
2024/01/19 07:40:29;;;;;;;21.10;9.50;;;2.00;99.90;;;;;;6263138;22;20091;-77
2024/01/19 07:42:58;;;;;;;18.92;7.53;;;2.10;99.90;;;;;;6263603;22;20034;-77
2024/01/19 07:45:27;;;;;;;17.88;7.88;;;2.00;99.90;;;;;;6261764;22;20081;-76
2024/01/19 07:47:57;;;;;;;17.70;7.05;;;2.10;99.90;;;;;;6263957;22;20050;-76
2024/01/19 07:50:26;;;;;;;41.15;20.20;;;2.00;99.90;;;;;;6262098;22;20062;-76
2024/01/19 07:52:55;;;;;;;22.95;8.88;;;2.10;99.90;;;;;;6266322;22;20321;-77
2024/01/19 07:55:23;;;;;;;18.80;7.05;;;1.30;99.90;;;;;;6263242;22;20100;-77
2024/01/19 07:57:52;;;;;;;13.07;6.30;;;2.20;99.90;;;;;;6261136;22;20134;-76
2024/01/19 08:00:21;;;;;;;16.83;5.28;;;2.10;99.90;;;;;;6263489;22;20016;-76
2024/01/19 08:02:49;;;;;;;19.55;7.15;;;2.10;99.90;;;;;;6264566;22;20296;-76
2024/01/19 08:05:20;;;;;;;15.90;6.60;;;2.10;99.90;;;;;;6263594;22;20016;-79
2024/01/19 08:07:49;;;;;;;22.65;8.95;;;2.10;99.90;;;;;;6261187;22;20007;-76
2024/01/19 08:10:18;;;;;;;18.23;7.50;;;2.00;99.90;;;;;;6265489;23;20018;-76
2024/01/19 08:12:47;;;;;;;17.27;6.32;;;1.50;99.90;;;;;;6262537;22;19996;-77
2024/01/19 08:15:16;;;;;;;17.20;6.80;;;1.90;99.90;;;;;;6262347;22;20058;-76
2024/01/19 08:17:45;;;;;;;18.92;7.75;;;1.90;99.90;;;;;;6260696;22;20004;-77
2024/01/19 08:20:14;;;;;;;14.25;6.15;;;1.90;99.90;;;;;;6261770;22;20091;-76
2024/01/19 08:22:45;;;;;;;14.80;6.72;;;1.80;99.90;;;;;;6261250;23;20217;-76
2024/01/19 08:25:14;;;;;;;14.68;6.53;;;2.20;99.90;;;;;;6264641;23;20043;-76
2024/01/19 08:27:43;;;;;;;15.15;6.10;;;1.80;99.90;;;;;;6261374;22;20012;-75
2024/01/19 08:30:13;;;;;;;9.98;5.18;;;1.80;99.90;;;;;;6251367;22;20024;-76
2024/01/19 08:32:41;;;;;;;13.93;5.50;;;1.80;99.90;;;;;;6231085;23;20047;-75
2024/01/19 08:35:10;;;;;;;18.85;7.93;;;1.60;99.90;;;;;;6232051;23;20020;-75
2024/01/19 08:37:39;;;;;;;17.20;6.65;;;1.70;99.90;;;;;;6232001;23;20016;-75
2024/01/19 08:40:10;;;;;;;19.67;7.22;;;1.70;99.90;;;;;;6230834;23;20028;-75
2024/01/19 08:42:39;;;;;;;18.45;7.30;;;1.70;99.90;;;;;;6234503;23;20036;-77
2024/01/19 08:45:08;;;;;;;17.75;7.32;;;1.70;99.90;;;;;;6233039;23;20714;-75
2024/01/19 08:47:37;;;;;;;15.63;6.57;;;1.70;99.90;;;;;;6206360;23;20019;-76
2024/01/19 08:50:06;;;;;;;19.02;5.85;;;1.60;99.90;;;;;;6205945;23;20111;-77
2024/01/19 08:52:35;;;;;;;10.85;4.47;;;1.70;99.90;;;;;;6206276;23;20089;-76
2024/01/19 08:55:04;;;;;;;16.98;6.25;;;1.70;99.90;;;;;;6232483;23;20024;-76
2024/01/19 08:57:34;;;;;;;13.27;5.50;;;1.70;99.90;;;;;;6206182;23;20035;-75
2024/01/19 09:00:04;;;;;;;11.98;4.57;;;1.70;99.90;;;;;;6206438;23;20023;-76
2024/01/19 09:02:33;;;;;;;14.80;4.90;;;1.70;99.90;;;;;;6210573;23;20044;-76
2024/01/19 09:05:01;;;;;;;13.27;5.22;;;1.70;99.90;;;;;;6209921;23;20024;-75
2024/01/19 09:07:30;;;;;;;16.65;5.85;;;1.70;99.90;;;;;;6232658;23;20016;-75
2024/01/19 09:09:58;;;;;;;16.65;5.70;;;1.70;99.90;;;;;;6206453;23;20032;-76
2024/01/19 09:12:28;;;;;;;17.15;7.00;;;1.70;99.90;;;;;;6206494;23;20035;-77
2024/01/19 09:14:58;;;;;;;18.50;6.20;;;1.70;99.90;;;;;;6243239;23;20024;-78
2024/01/19 09:17:27;;;;;;;18.90;5.57;;;1.70;99.90;;;;;;6184064;23;20024;-77
2024/01/19 09:19:55;;;;;;;16.17;5.75;;;1.60;99.90;;;;;;6206864;23;20499;-76
2024/01/19 09:22:24;;;;;;;16.48;6.55;;;1.60;99.90;;;;;;6207090;23;20031;-77
2024/01/19 09:24:52;;;;;;;15.38;6.28;;;1.50;99.90;;;;;;6235036;23;20023;-77
2024/01/19 09:27:20;;;;;;;16.63;6.68;;;1.50;99.90;;;;;;6210373;23;20027;-76
2024/01/19 09:29:49;;;;;;;14.40;5.95;;;2.40;99.90;;;;;;6205915;23;20499;-76
2024/01/19 09:32:19;;;;;;;11.18;4.38;;;1.50;99.90;;;;;;6211289;23;20032;-77
2024/01/19 09:34:47;;;;;;;15.95;6.78;;;1.40;99.90;;;;;;6205724;23;20024;-76
2024/01/19 09:37:15;;;;;;;14.77;7.25;;;1.40;99.90;;;;;;6205656;23;20026;-76
2024/01/19 09:39:44;;;;;;;14.60;5.38;;;1.40;99.90;;;;;;6235426;23;20035;-80
2024/01/19 09:42:23;;;;;;;20.25;8.18;;;1.40;99.90;;;;;;6237128;23;20082;-80
2024/01/19 09:45:02;;;;;;;23.92;8.20;;;1.40;99.90;;;;;;6236135;23;20039;-80
2024/01/19 09:47:43;;;;;;;19.70;6.75;;;1.30;99.90;;;;;;6236123;23;20044;-78
2024/01/19 09:50:17;;;;;;;20.95;7.93;;;1.30;99.90;;;;;;6205951;22;20005;-77
2024/01/19 09:52:51;;;;;;;18.85;7.80;;;1.20;99.90;;;;;;6211615;23;20051;-79
2024/01/19 09:55:20;;;;;;;22.35;8.18;;;1.20;99.90;;;;;;6206500;23;20016;-79
2024/01/19 09:57:49;;;;;;;17.38;7.03;;;1.20;99.90;;;;;;6205821;23;20016;-79
2024/01/19 10:00:19;;;;;;;25.17;10.00;;;1.20;99.90;;;;;;6233429;23;20024;-78
2024/01/19 10:02:51;;;;;;;22.45;8.80;;;1.10;99.90;;;;;;6209268;23;20020;-78
2024/01/19 10:05:21;;;;;;;20.73;7.27;;;1.10;99.90;;;;;;6206940;23;20017;-78
2024/01/19 10:07:53;;;;;;;30.45;12.15;;;1.10;99.90;;;;;;6233066;22;20105;-79
2024/01/19 10:10:22;;;;;;;24.13;10.80;;;1.10;99.90;;;;;;6232594;23;20073;-80
2024/01/19 10:12:51;;;;;;;23.58;11.95;;;1.10;99.90;;;;;;6233757;22;20242;-77
2024/01/19 10:15:20;;;;;;;23.70;11.25;;;1.00;99.90;;;;;;6207245;23;20075;-77
2024/01/19 10:17:53;;;;;;;21.65;8.95;;;0.50;99.90;;;;;;6236569;22;20079;-79
2024/01/19 10:20:23;;;;;;;25.30;10.93;;;1.00;99.90;;;;;;6209869;23;20256;-78
2024/01/19 10:22:52;;;;;;;27.00;8.48;;;0.90;99.90;;;;;;6210070;22;20001;-78
2024/01/19 10:25:21;;;;;;;22.95;9.20;;;0.30;99.90;;;;;;6209367;22;20008;-77
2024/01/19 10:27:52;;;;;;;28.77;10.65;;;1.00;99.90;;;;;;6209712;22;20028;-78
2024/01/19 10:30:23;;;;;;;29.33;10.90;;;1.30;99.90;;;;;;6233244;22;20001;-79
2024/01/19 10:33:08;;;;;;;33.08;12.50;;;0.90;99.90;;;;;;6206718;22;20004;-78
2024/01/19 10:35:39;;;;;;;33.67;12.45;;;1.00;99.90;;;;;;6206773;23;20620;-79
2024/01/19 10:38:10;;;;;;;39.20;12.45;;;1.00;99.90;;;;;;6207111;23;20012;-80
2024/01/19 10:40:39;;;;;;;41.42;14.15;;;1.20;99.90;;;;;;6208690;22;20024;-78
2024/01/19 10:43:10;;;;;;;34.72;13.65;;;1.10;99.90;;;;;;6208461;23;20024;-78
2024/01/19 10:45:39;;;;;;;40.67;13.50;;;1.30;99.90;;;;;;6213604;23;20004;-78
2024/01/19 10:48:10;;;;;;;38.20;13.68;;;1.10;99.90;;;;;;6260142;22;20337;-79
2024/01/19 10:50:39;;;;;;;28.08;10.82;;;1.30;99.90;;;;;;6268268;22;20081;-80
2024/01/19 10:53:14;;;;;;;29.13;12.70;;;2.00;99.90;;;;;;6260494;23;20026;-78
2024/01/19 10:55:49;;;;;;;27.63;10.70;;;1.10;99.90;;;;;;6254840;22;20035;-78
2024/01/19 10:58:23;;;;;;;30.42;14.20;;;1.60;99.90;;;;;;6251063;23;20547;-79
2024/01/19 11:00:53;;;;;;;32.50;12.75;;;1.10;99.90;;;;;;6244809;23;20020;-78
2024/01/19 11:03:26;;;;;;;31.10;11.63;;;0.90;99.90;;;;;;6255136;23;20130;-78
2024/01/19 11:06:04;;;;;;;36.20;17.85;;;1.00;99.90;;;;;;6265210;23;20016;-80
2024/01/19 11:08:45;;;;;;;39.50;14.85;;;1.00;99.90;;;;;;6259326;23;20016;-78
2024/01/19 11:11:16;;;;;;;44.08;19.77;;;0.30;99.90;;;;;;6233535;22;20020;-78
2024/01/19 11:39:51;;;;;;;30.83;12.07;;;0.80;99.90;;;;;;6025861;23;20027;-81
2024/01/19 11:54:29;;;;;;;31.02;12.90;;;1.10;99.90;;;;;;5945004;24;20017;-77
2024/01/19 11:58:04;;;;;;;30.02;12.50;;;1.30;99.90;;;;;;5950278;24;20028;-80
2024/01/19 12:20:16;;;;;;;37.45;13.23;;;1.30;99.90;;;;;;6216814;23;20072;-85
2024/01/19 12:22:55;;;;;;;32.60;11.90;;;1.30;99.90;;;;;;6145572;23;20039;-85
2024/01/19 12:28:51;;;;;;;37.30;12.50;;;1.30;99.90;;;;;;6257980;22;20027;-85
2024/01/19 12:34:42;;;;;;;38.17;13.25;;;0.80;99.90;;;;;;6250994;22;20026;-85
2024/01/19 12:37:19;;;;;;;34.50;13.75;;;1.30;99.90;;;;;;6276347;22;20019;-85
2024/01/19 13:16:41;;;;;;;40.63;13.82;;;1.60;99.90;;;;;;6282510;22;20007;-82
2024/01/19 13:33:58;;;;;;;40.83;14.32;;;1.30;99.90;;;;;;6037959;23;20018;-80
2024/01/19 13:44:43;;;;;;;40.42;14.40;;;1.50;99.90;;;;;;5792147;24;20107;-79
2024/01/19 13:47:12;;;;;;;41.35;13.93;;;0.50;99.90;;;;;;5762416;24;20024;-80
2024/01/19 13:49:41;;;;;;;37.05;14.90;;;1.50;99.90;;;;;;5804610;24;20087;-80
2024/01/19 13:52:11;;;;;;;34.35;12.13;;;1.50;99.90;;;;;;5831417;24;20026;-80
2024/01/19 13:54:40;;;;;;;41.35;13.38;;;1.50;99.90;;;;;;5833703;24;20027;-80
2024/01/19 13:57:20;;;;;;;37.95;13.48;;;1.50;99.90;;;;;;5831282;24;20041;-79
2024/01/19 14:00:47;;;;;;;34.60;12.73;;;1.50;99.90;;;;;;5874759;24;20021;-78
2024/01/19 14:03:50;;;;;;;32.45;13.00;;;1.40;99.90;;;;;;5921668;24;20074;-81
2024/01/19 14:06:27;;;;;;;27.77;10.30;;;1.40;99.90;;;;;;5932900;24;20021;-79
2024/01/19 14:08:56;;;;;;;35.10;13.05;;;1.50;99.90;;;;;;6038473;23;20007;-79
2024/01/19 14:11:25;;;;;;;30.20;11.60;;;1.30;99.90;;;;;;6019087;23;20027;-78
2024/01/19 14:13:54;;;;;;;26.63;10.38;;;1.30;99.90;;;;;;6014033;23;20061;-79
2024/01/19 14:16:30;;;;;;;35.50;11.50;;;1.70;99.90;;;;;;6046790;23;20099;-78
2024/01/19 14:19:00;;;;;;;31.83;11.35;;;1.30;99.90;;;;;;6061729;23;20049;-78
2024/01/19 14:21:29;;;;;;;32.78;12.02;;;1.30;99.90;;;;;;6066488;23;20515;-78
2024/01/19 14:24:02;;;;;;;26.58;10.50;;;1.40;99.90;;;;;;6088764;23;20022;-78
2024/01/19 14:26:31;;;;;;;34.55;12.85;;;1.40;99.90;;;;;;6126389;23;20451;-77
2024/01/19 14:29:00;;;;;;;34.30;13.50;;;1.60;99.90;;;;;;6101050;23;20014;-77
2024/01/19 14:31:30;;;;;;;29.65;12.00;;;1.30;99.90;;;;;;6099862;23;20018;-77
2024/01/19 14:33:59;;;;;;;28.63;12.07;;;1.20;99.90;;;;;;6100816;23;20134;-78
2024/01/19 14:36:31;;;;;;;34.70;13.73;;;1.30;99.90;;;;;;6126568;23;20041;-78
2024/01/19 14:38:59;;;;;;;31.17;12.93;;;1.20;99.90;;;;;;6098350;23;20075;-77
2024/01/19 14:41:33;;;;;;;33.55;12.52;;;1.30;99.90;;;;;;6126102;23;20025;-78
2024/01/19 14:44:03;;;;;;;31.55;13.73;;;1.30;99.90;;;;;;6128324;23;20109;-77
2024/01/19 14:46:35;;;;;;;34.95;13.20;;;1.30;99.90;;;;;;6129111;23;20049;-78
2024/01/19 14:49:05;;;;;;;32.60;13.73;;;1.30;99.90;;;;;;6131137;23;20387;-79
2024/01/19 14:51:34;;;;;;;41.30;15.20;;;1.30;99.90;;;;;;6068841;23;20106;-79
2024/01/19 14:54:04;;;;;;;41.95;17.27;;;1.30;99.90;;;;;;6042020;23;20038;-79
2024/01/19 14:56:34;;;;;;;42.70;17.42;;;1.30;99.90;;;;;;6093137;23;20026;-78
2024/01/19 14:59:05;;;;;;;42.45;16.35;;;1.30;99.90;;;;;;6155981;23;20021;-79
2024/01/19 15:01:36;;;;;;;32.92;15.00;;;1.30;99.90;;;;;;6157766;23;20095;-78